createdAt,value
2018-02-17T00:01:43.443Z,65.35
2018-02-17T00:04:10.965Z,65.36
2018-02-17T00:06:38.515Z,65.37
2018-02-17T00:09:06.020Z,65.31
2018-02-17T00:11:33.573Z,65.32
2018-02-17T00:14:01.069Z,65.36
2018-02-17T00:16:28.591Z,65.49
2018-02-17T00:18:56.078Z,65.90
2018-02-17T00:21:23.883Z,66.12
2018-02-17T00:23:51.412Z,66.87
2018-02-17T00:26:19.469Z,67.20
2018-02-17T00:28:47.333Z,67.72
2018-02-17T00:31:14.825Z,67.23
2018-02-17T00:33:42.356Z,66.97
2018-02-17T00:36:09.868Z,67.03
2018-02-17T00:38:37.389Z,68.14
2018-02-17T00:41:05.216Z,68.61
2018-02-17T00:43:32.784Z,68.65
2018-02-17T00:46:00.317Z,69.20
2018-02-17T00:48:29.397Z,69.40
2018-02-17T00:50:56.948Z,69.17
2018-02-17T00:53:25.138Z,69.29
2018-02-17T00:55:52.665Z,69.31
2018-02-17T00:58:20.174Z,68.77
2018-02-17T01:00:47.693Z,68.35
2018-02-17T01:03:15.187Z,68.10
2018-02-17T01:05:42.724Z,67.84
2018-02-17T01:08:10.248Z,67.48
2018-02-17T01:10:37.811Z,67.19
2018-02-17T01:13:05.326Z,67.17
2018-02-17T01:15:32.816Z,66.92
2018-02-17T01:18:00.361Z,66.73
2018-02-17T01:20:27.900Z,66.56
2018-02-17T01:22:55.429Z,66.71
2018-02-17T01:25:22.937Z,66.61
2018-02-17T01:27:50.455Z,66.56
2018-02-17T01:30:17.950Z,66.57
2018-02-17T01:32:45.454Z,66.50
2018-02-17T01:35:12.951Z,66.20
2018-02-17T01:37:40.461Z,66.05
2018-02-17T01:40:07.987Z,65.99
2018-02-17T01:42:35.468Z,66.02
2018-02-17T01:45:02.973Z,66.04
2018-02-17T01:47:30.469Z,66.03
2018-02-17T01:49:57.997Z,66.18
2018-02-17T01:52:25.494Z,66.08
2018-02-17T01:54:53.033Z,66.13
2018-02-17T01:57:20.516Z,66.13
2018-02-17T01:59:48.032Z,66.09
2018-02-17T02:02:15.585Z,66.01
2018-02-17T02:04:43.080Z,66.10
2018-02-17T02:07:11.473Z,66.26
2018-02-17T02:09:39.155Z,66.72
2018-02-17T02:12:06.698Z,66.78
2018-02-17T02:14:34.282Z,66.75
2018-02-17T02:17:01.792Z,66.78
2018-02-17T02:19:33.427Z,66.77
2018-02-17T02:22:00.934Z,66.78
2018-02-17T02:24:28.435Z,66.80
2018-02-17T02:26:55.917Z,66.77
2018-02-17T02:29:23.435Z,66.98
2018-02-17T02:31:50.928Z,67.17
2018-02-17T02:34:18.444Z,67.62
2018-02-17T02:36:45.947Z,67.93
2018-02-17T02:39:13.456Z,67.92
2018-02-17T02:41:40.955Z,67.94
2018-02-17T02:44:08.431Z,67.86
2018-02-17T02:46:35.931Z,67.80
2018-02-17T02:49:03.502Z,67.83
2018-02-17T02:51:31.008Z,67.75
2018-02-17T02:53:58.494Z,67.71
2018-02-17T02:56:26.187Z,68.08
2018-02-17T02:58:53.768Z,68.03
2018-02-17T03:01:21.421Z,68.42
2018-02-17T03:03:48.936Z,68.51
2018-02-17T03:06:16.449Z,68.71
2018-02-17T03:08:43.999Z,68.46
2018-02-17T03:11:11.481Z,68.38
2018-02-17T03:13:39.007Z,68.34
2018-02-17T03:16:06.495Z,68.77
2018-02-17T03:18:34.049Z,68.92
2018-02-17T03:21:01.529Z,68.61
2018-02-17T03:23:29.063Z,68.86
2018-02-17T03:25:56.547Z,69.06
2018-02-17T03:28:24.033Z,68.87
2018-02-17T03:30:51.552Z,68.88
2018-02-17T03:33:19.052Z,68.67
2018-02-17T03:35:48.197Z,68.39
2018-02-17T03:38:15.693Z,68.89
2018-02-17T03:40:43.205Z,68.95
2018-02-17T03:43:10.693Z,69.10
2018-02-17T03:45:38.203Z,69.80
2018-02-17T03:48:05.710Z,69.97
2018-02-17T03:50:33.203Z,70.16
2018-02-17T03:53:00.730Z,70.50
2018-02-17T03:55:28.341Z,70.53
2018-02-17T03:57:55.855Z,70.62
2018-02-17T04:00:23.339Z,70.85
2018-02-17T04:02:50.890Z,71.34
2018-02-17T04:05:18.417Z,71.84
2018-02-17T04:07:45.896Z,72.39
2018-02-17T04:10:13.403Z,72.39
2018-02-17T04:12:40.904Z,72.33
2018-02-17T04:15:08.411Z,72.50
2018-02-17T04:17:35.903Z,73.13
2018-02-17T04:20:03.420Z,73.64
2018-02-17T04:22:30.964Z,74.12
2018-02-17T04:24:58.477Z,74.52
2018-02-17T04:27:26.002Z,74.82
2018-02-17T04:29:53.501Z,74.64
2018-02-17T04:32:21.165Z,74.12
2018-02-17T04:34:48.765Z,73.53
2018-02-17T04:37:16.358Z,73.07
2018-02-17T04:39:46.396Z,72.68
2018-02-17T04:45:21.332Z,71.54
2018-02-17T04:47:48.818Z,71.10
2018-02-17T04:50:22.228Z,70.72
2018-02-17T04:53:00.488Z,70.37
2018-02-17T04:55:28.008Z,70.12
2018-02-17T04:57:57.441Z,70.15
2018-02-17T05:00:36.641Z,70.37
2018-02-17T05:06:21.554Z,71.77
2018-02-17T05:08:50.619Z,71.90
2018-02-17T05:11:18.136Z,72.04
2018-02-17T05:13:45.673Z,72.40
2018-02-17T05:16:29.962Z,72.37
2018-02-17T05:22:11.272Z,71.79
2018-02-17T05:24:41.552Z,71.13
2018-02-17T05:27:24.085Z,71.20
2018-02-17T05:29:52.026Z,71.37
2018-02-17T05:32:19.530Z,71.25
2018-02-17T05:34:52.755Z,71.07
2018-02-17T05:37:20.271Z,70.91
2018-02-17T05:39:50.180Z,70.73
2018-02-17T05:42:20.060Z,70.98
2018-02-17T05:44:53.468Z,70.74
2018-02-17T05:47:31.913Z,70.39
2018-02-17T05:49:59.966Z,70.12
2018-02-17T05:52:27.456Z,69.38
2018-02-17T05:54:54.984Z,69.55
2018-02-17T05:57:22.469Z,69.60
2018-02-17T05:59:49.998Z,69.79
2018-02-17T06:02:17.495Z,69.75
2018-02-17T06:04:45.011Z,69.79
2018-02-17T06:07:12.500Z,69.76
2018-02-17T06:09:40.066Z,69.68
2018-02-17T06:12:07.686Z,69.68
2018-02-17T06:14:35.269Z,69.88
2018-02-17T06:17:03.527Z,70.10
2018-02-17T06:19:31.025Z,70.37
2018-02-17T06:21:58.535Z,70.72
2018-02-17T06:24:26.054Z,70.68
2018-02-17T06:26:53.575Z,70.57
2018-02-17T06:29:21.255Z,71.08
2018-02-17T06:31:48.782Z,71.27
2018-02-17T06:34:16.270Z,71.30
2018-02-17T06:36:43.786Z,70.94
2018-02-17T06:39:11.390Z,70.68
2018-02-17T06:41:38.889Z,70.27
2018-02-17T06:44:06.422Z,70.21
2018-02-17T06:46:33.922Z,70.00
2018-02-17T06:49:02.279Z,69.44
2018-02-17T06:51:29.763Z,69.17
2018-02-17T06:53:57.290Z,69.63
2018-02-17T06:56:24.782Z,69.78
2018-02-17T06:58:52.275Z,69.84
2018-02-17T07:01:19.794Z,69.69
2018-02-17T07:03:47.326Z,69.29
2018-02-17T07:06:14.941Z,68.66
2018-02-17T07:08:42.911Z,68.60
2018-02-17T07:11:10.420Z,68.26
2018-02-17T07:13:37.924Z,67.85
2018-02-17T07:16:05.431Z,67.07
2018-02-17T07:18:32.944Z,66.09
2018-02-17T07:21:00.689Z,66.34
2018-02-17T07:23:28.201Z,66.37
2018-02-17T07:25:55.730Z,66.13
2018-02-17T07:28:23.259Z,65.85
2018-02-17T07:30:50.768Z,66.32
2018-02-17T07:33:18.334Z,66.41
2018-02-17T07:35:45.818Z,66.34
2018-02-17T07:38:13.483Z,66.20
2018-02-17T07:40:41.115Z,66.78
2018-02-17T07:43:08.653Z,67.03
2018-02-17T07:45:36.230Z,67.21
2018-02-17T07:48:03.827Z,67.01
2018-02-17T07:50:31.450Z,67.19
2018-02-17T07:52:59.058Z,67.43
2018-02-17T07:55:26.630Z,66.76
2018-02-17T07:57:54.125Z,66.82
2018-02-17T08:00:21.645Z,66.87
2018-02-17T08:02:49.151Z,66.20
2018-02-17T08:05:16.687Z,66.56
2018-02-17T08:07:44.229Z,66.41
2018-02-17T08:10:14.079Z,65.94
2018-02-17T08:12:41.620Z,65.92
2018-02-17T08:15:09.102Z,65.94
2018-02-17T08:17:36.622Z,65.92
2018-02-17T08:20:04.124Z,65.36
2018-02-17T08:22:31.680Z,65.01
2018-02-17T08:24:59.199Z,64.59
2018-02-17T08:27:26.735Z,64.71
2018-02-17T08:29:54.260Z,64.87
2018-02-17T08:32:21.769Z,64.93
2018-02-17T08:34:49.290Z,65.17
2018-02-17T08:37:16.783Z,65.26
2018-02-17T08:39:44.307Z,65.11
2018-02-17T08:42:11.861Z,65.30
2018-02-17T08:44:39.497Z,65.23
2018-02-17T08:47:06.994Z,64.81
2018-02-17T08:49:34.593Z,64.47
2018-02-17T08:52:02.146Z,64.21
2018-02-17T08:54:29.732Z,64.70
2018-02-17T08:56:57.221Z,64.52
2018-02-17T08:59:24.719Z,64.45
2018-02-17T09:01:52.252Z,64.52
2018-02-17T09:04:19.848Z,64.50
2018-02-17T09:06:47.503Z,64.26
2018-02-17T09:09:15.031Z,64.27
2018-02-17T09:11:42.624Z,64.25
2018-02-17T09:14:10.149Z,64.38
2018-02-17T09:16:37.676Z,64.09
2018-02-17T09:19:05.829Z,64.01
2018-02-17T09:21:33.360Z,64.10
2018-02-17T09:24:00.916Z,63.72
2018-02-17T09:26:28.432Z,63.95
2018-02-17T09:28:56.020Z,63.50
2018-02-17T09:31:23.601Z,63.03
2018-02-17T09:33:51.119Z,62.70
2018-02-17T09:36:18.700Z,62.13
2018-02-17T09:38:46.218Z,62.62
2018-02-17T09:41:13.711Z,62.84
2018-02-17T09:43:41.294Z,62.77
2018-02-17T09:46:08.838Z,61.79
2018-02-17T09:48:36.371Z,61.66
2018-02-17T09:51:03.888Z,62.44
2018-02-17T09:53:31.991Z,63.94
2018-02-17T09:55:59.706Z,63.06
2018-02-17T09:58:27.238Z,63.87
2018-02-17T10:00:54.808Z,64.57
2018-02-17T10:03:22.717Z,65.53
2018-02-17T10:05:50.343Z,65.45
2018-02-17T10:08:17.835Z,65.85
2018-02-17T10:10:45.376Z,66.19
2018-02-17T10:13:13.021Z,66.05
2018-02-17T10:15:40.543Z,65.61
2018-02-17T10:18:08.051Z,65.64
2018-02-17T10:20:35.577Z,65.12
2018-02-17T10:23:03.139Z,65.23
2018-02-17T10:25:30.711Z,65.36
2018-02-17T10:30:32.058Z,65.47
2018-02-17T10:32:59.578Z,65.12
2018-02-17T10:35:27.122Z,65.48
2018-02-17T10:37:54.622Z,64.39
2018-02-17T10:40:22.126Z,64.45
2018-02-17T10:42:49.662Z,65.32
2018-02-17T10:45:17.237Z,65.37
2018-02-17T10:47:45.140Z,65.97
2018-02-17T10:50:12.655Z,65.80
2018-02-17T10:52:40.167Z,65.92
2018-02-17T10:55:07.676Z,66.65
2018-02-17T10:57:36.099Z,67.23
2018-02-17T11:00:03.789Z,67.07
2018-02-17T11:02:31.444Z,67.72
2018-02-17T11:04:58.975Z,68.32
2018-02-17T11:07:26.508Z,68.58
2018-02-17T11:09:54.153Z,68.41
2018-02-17T11:12:21.741Z,68.62
2018-02-17T11:14:49.363Z,69.16
2018-02-17T11:17:17.164Z,70.05
2018-02-17T11:19:44.686Z,69.91
2018-02-17T11:22:12.249Z,69.68
2018-02-17T11:24:39.777Z,69.23
2018-02-17T11:27:07.344Z,69.56
2018-02-17T11:29:34.951Z,70.61
2018-02-17T11:32:02.465Z,70.51
2018-02-17T11:34:29.993Z,70.51
2018-02-17T11:36:57.510Z,70.40
2018-02-17T11:39:25.122Z,70.89
2018-02-17T11:41:52.639Z,71.46
2018-02-17T11:44:20.250Z,71.61
2018-02-17T11:46:47.824Z,71.73
2018-02-17T11:49:15.423Z,71.58
2018-02-17T11:51:42.968Z,71.37
2018-02-17T11:54:10.536Z,70.72
2018-02-17T11:56:38.074Z,71.59
2018-02-17T11:59:05.576Z,71.33
2018-02-17T12:01:33.129Z,70.14
2018-02-17T12:04:01.322Z,70.23
2018-02-17T12:06:28.863Z,69.48
2018-02-17T12:08:56.394Z,69.57
2018-02-17T12:11:23.972Z,69.38
2018-02-17T12:13:51.484Z,69.53
2018-02-17T12:16:19.025Z,69.95
2018-02-17T12:18:46.557Z,69.90
2018-02-17T12:21:14.118Z,69.61
2018-02-17T12:23:41.696Z,69.46
2018-02-17T12:26:09.260Z,69.62
2018-02-17T12:28:36.862Z,69.55
2018-02-17T12:31:04.375Z,69.52
2018-02-17T12:33:32.042Z,69.41
2018-02-17T12:35:59.557Z,69.82
2018-02-17T12:38:27.091Z,69.69
2018-02-17T12:40:54.586Z,69.54
2018-02-17T12:43:22.121Z,69.61
2018-02-17T12:45:49.937Z,69.36
2018-02-17T12:48:17.461Z,69.52
2018-02-17T12:50:45.097Z,69.39
2018-02-17T12:53:12.754Z,69.85
2018-02-17T12:55:40.362Z,70.09
2018-02-17T12:58:07.890Z,70.55
2018-02-17T13:00:35.528Z,69.86
2018-02-17T13:03:03.170Z,70.33
2018-02-17T13:05:30.753Z,70.51
2018-02-17T13:07:58.776Z,70.15
2018-02-17T13:10:26.358Z,69.47
2018-02-17T13:12:53.891Z,69.62
2018-02-17T13:15:21.444Z,69.30
2018-02-17T13:17:48.961Z,69.23
2018-02-17T13:20:16.494Z,69.05
2018-02-17T13:22:44.018Z,68.61
2018-02-17T13:25:11.549Z,68.45
2018-02-17T13:27:39.056Z,68.17
2018-02-17T13:30:06.668Z,68.13
2018-02-17T13:32:34.252Z,67.85
2018-02-17T13:35:01.852Z,67.47
2018-02-17T13:37:29.416Z,67.97
2018-02-17T13:39:56.960Z,68.59
2018-02-17T13:42:24.553Z,68.61
2018-02-17T13:44:52.166Z,69.18
2018-02-17T13:47:19.723Z,68.92
2018-02-17T13:49:47.269Z,68.95
2018-02-17T13:52:14.825Z,68.89
2018-02-17T13:54:42.369Z,68.78
2018-02-17T13:57:09.898Z,68.59
2018-02-17T13:59:37.429Z,68.12
2018-02-17T14:02:05.047Z,68.61
2018-02-17T14:04:32.601Z,68.33
2018-02-17T14:07:00.121Z,68.31
2018-02-17T14:09:27.619Z,69.00
2018-02-17T14:11:55.168Z,68.70
2018-02-17T14:14:22.721Z,68.44
2018-02-17T14:16:50.326Z,68.17
2018-02-17T14:19:17.825Z,67.67
2018-02-17T14:21:45.356Z,68.35
2018-02-17T14:24:12.896Z,68.61
2018-02-17T14:26:40.440Z,68.54
2018-02-17T14:29:07.945Z,68.37
2018-02-17T14:31:35.465Z,67.89
2018-02-17T14:34:03.029Z,67.60
2018-02-17T14:36:30.676Z,67.59
2018-02-17T14:38:58.248Z,68.05
2018-02-17T14:41:25.784Z,67.88
2018-02-17T14:43:53.282Z,67.75
2018-02-17T14:46:20.844Z,68.43
2018-02-17T14:48:48.516Z,68.06
2018-02-17T14:51:16.083Z,67.73
2018-02-17T14:53:43.670Z,67.65
2018-02-17T14:56:11.235Z,67.55
2018-02-17T14:58:38.802Z,67.39
2018-02-17T15:01:06.431Z,67.01
2018-02-17T15:03:34.072Z,67.03
2018-02-17T15:06:01.614Z,66.69
2018-02-17T15:08:29.200Z,66.65
2018-02-17T15:10:56.801Z,67.03
2018-02-17T15:13:24.433Z,66.95
2018-02-17T15:15:52.008Z,66.62
2018-02-17T15:18:19.548Z,66.93
2018-02-17T15:20:47.181Z,67.12
2018-02-17T15:23:14.739Z,67.28
2018-02-17T15:25:42.255Z,66.92
2018-02-17T15:28:09.783Z,67.22
2018-02-17T15:30:37.322Z,68.20
2018-02-17T15:33:04.923Z,68.76
2018-02-17T15:35:32.495Z,68.55
2018-02-17T15:38:00.144Z,69.10
2018-02-17T15:40:27.712Z,69.40
2018-02-17T15:42:56.170Z,69.98
2018-02-17T15:45:23.714Z,69.85
2018-02-17T15:47:51.340Z,69.77
2018-02-17T15:50:18.910Z,69.29
2018-02-17T15:52:46.569Z,68.90
2018-02-17T15:55:14.071Z,68.30
2018-02-17T15:57:41.605Z,68.27
2018-02-17T16:00:09.149Z,68.36
2018-02-17T16:02:36.687Z,68.55
2018-02-17T16:05:04.252Z,69.17
2018-02-17T16:07:32.484Z,69.14
2018-02-17T16:10:00.006Z,68.84
2018-02-17T16:12:27.542Z,69.01
2018-02-17T16:14:55.068Z,68.97
2018-02-17T16:17:22.710Z,69.00
2018-02-17T16:19:50.280Z,68.87
2018-02-17T16:22:17.879Z,69.65
2018-02-17T16:24:45.390Z,70.09
2018-02-17T16:27:12.893Z,70.08
2018-02-17T16:29:40.404Z,70.99
2018-02-17T16:32:07.930Z,71.05
2018-02-17T16:34:35.499Z,70.82
2018-02-17T16:37:03.871Z,71.00
2018-02-17T16:39:32.022Z,70.77
2018-02-17T16:41:59.598Z,70.42
2018-02-17T16:44:27.152Z,70.37
2018-02-17T16:46:54.737Z,70.11
2018-02-17T16:49:22.341Z,70.53
2018-02-17T16:51:50.487Z,70.45
2018-02-17T16:54:18.059Z,70.16
2018-02-17T16:56:45.569Z,70.01
2018-02-17T16:59:13.794Z,70.41
2018-02-17T17:01:41.336Z,70.78
2018-02-17T17:04:08.905Z,70.87
2018-02-17T17:06:36.402Z,70.95
2018-02-17T17:09:03.918Z,71.35
2018-02-17T17:11:31.431Z,71.69
2018-02-17T17:13:58.961Z,71.93
2018-02-17T17:16:26.555Z,71.93
2018-02-17T17:18:54.103Z,72.09
2018-02-17T17:21:21.648Z,73.10
2018-02-17T17:23:49.161Z,73.07
2018-02-17T17:26:17.154Z,73.07
2018-02-17T17:28:44.745Z,73.48
2018-02-17T17:31:12.319Z,74.05
2018-02-17T17:33:39.863Z,74.09
2018-02-17T17:36:07.450Z,73.92
2018-02-17T17:38:34.964Z,73.64
2018-02-17T17:41:02.488Z,73.54
2018-02-17T17:43:29.998Z,73.14
2018-02-17T17:45:57.605Z,72.88
2018-02-17T17:48:25.909Z,73.40
2018-02-17T17:50:53.772Z,73.54
2018-02-17T17:53:21.264Z,72.92
2018-02-17T17:55:48.832Z,72.47
2018-02-17T17:58:16.348Z,71.99
2018-02-17T18:00:43.881Z,71.98
2018-02-17T18:03:11.415Z,72.09
2018-02-17T18:05:39.012Z,72.32
2018-02-17T18:08:06.523Z,72.64
2018-02-17T18:10:34.021Z,72.73
2018-02-17T18:13:01.564Z,73.23
2018-02-17T18:15:29.090Z,73.25
2018-02-17T18:17:56.651Z,73.29
2018-02-17T18:20:24.155Z,73.63
2018-02-17T18:22:51.743Z,74.28
2018-02-17T18:25:19.274Z,74.54
2018-02-17T18:27:46.792Z,75.11
2018-02-17T18:30:14.320Z,76.36
2018-02-17T18:32:42.444Z,76.42
2018-02-17T18:35:09.970Z,76.23
2018-02-17T18:37:37.482Z,75.54
2018-02-17T18:40:05.016Z,75.39
2018-02-17T18:42:32.882Z,75.99
2018-02-17T18:45:00.399Z,76.09
2018-02-17T18:47:27.928Z,76.39
2018-02-17T18:49:55.433Z,76.04
2018-02-17T18:52:23.004Z,76.10
2018-02-17T18:54:50.668Z,76.35
2018-02-17T18:57:18.206Z,76.05
2018-02-17T18:59:45.699Z,75.82
2018-02-17T19:02:13.272Z,75.60
2018-02-17T19:04:40.767Z,75.18
2018-02-17T19:07:08.497Z,74.91
2018-02-17T19:09:36.154Z,74.17
2018-02-17T19:12:03.777Z,74.10
2018-02-17T19:14:31.309Z,74.23
2018-02-17T19:16:58.825Z,74.67
2018-02-17T19:19:26.842Z,74.83
2018-02-17T19:21:54.332Z,75.02
2018-02-17T19:24:26.592Z,75.09
2018-02-17T19:26:54.180Z,74.74
2018-02-17T19:29:21.751Z,74.88
2018-02-17T19:31:49.310Z,75.14
2018-02-17T19:34:16.829Z,74.66
2018-02-17T19:36:44.737Z,74.27
2018-02-17T19:39:12.784Z,73.61
2018-02-17T19:41:40.301Z,74.06
2018-02-17T19:44:07.831Z,73.97
2018-02-17T19:46:35.395Z,74.24
2018-02-17T19:49:03.220Z,74.18
2018-02-17T19:51:31.363Z,74.47
2018-02-17T19:53:58.850Z,73.96
2018-02-17T19:56:26.388Z,75.16
2018-02-17T19:58:54.190Z,76.08
2018-02-17T20:01:21.714Z,75.82
2018-02-17T20:03:49.248Z,75.64
2018-02-17T20:06:16.766Z,75.42
2018-02-17T20:08:44.353Z,76.82
2018-02-17T20:11:11.849Z,77.27
2018-02-17T20:13:43.612Z,77.08
2018-02-17T20:16:11.178Z,76.86
2018-02-17T20:18:39.369Z,76.28
2018-02-17T20:21:07.398Z,75.88
2018-02-17T20:23:34.933Z,75.07
2018-02-17T20:26:02.430Z,74.50
2018-02-17T20:28:29.951Z,74.11
2018-02-17T20:30:57.478Z,73.76
2018-02-17T20:33:24.989Z,73.64
2018-02-17T20:35:52.593Z,73.60
2018-02-17T20:38:20.643Z,73.61
2018-02-17T20:40:48.192Z,73.81
2018-02-17T20:43:15.732Z,73.58
2018-02-17T20:45:43.268Z,73.33
2018-02-17T20:48:10.771Z,73.09
2018-02-17T20:50:38.300Z,72.72
2018-02-17T20:53:05.807Z,71.85
2018-02-17T20:55:33.334Z,72.75
2018-02-17T20:58:00.835Z,72.53
2018-02-17T21:00:28.333Z,72.89
2018-02-17T21:02:56.397Z,73.02
2018-02-17T21:05:23.848Z,73.13
2018-02-17T21:07:51.452Z,73.35
2018-02-17T21:10:18.951Z,73.34
2018-02-17T21:12:46.503Z,73.16
2018-02-17T21:15:14.009Z,73.26
2018-02-17T21:17:41.543Z,73.54
2018-02-17T21:20:09.099Z,73.13
2018-02-17T21:22:36.597Z,73.14
2018-02-17T21:25:04.167Z,73.05
2018-02-17T21:27:31.688Z,73.48
2018-02-17T21:29:59.230Z,73.57
2018-02-17T21:32:26.749Z,73.26
2018-02-17T21:34:54.464Z,73.32
2018-02-17T21:37:22.115Z,73.09
2018-02-17T21:39:49.648Z,72.82
2018-02-17T21:42:17.292Z,72.60
2018-02-17T21:44:44.817Z,72.95
2018-02-17T21:47:12.435Z,73.32
2018-02-17T21:49:40.020Z,73.20
2018-02-17T21:52:07.566Z,72.99
2018-02-17T21:54:35.050Z,73.00
2018-02-17T21:57:02.621Z,72.81
2018-02-17T21:59:30.196Z,72.73
2018-02-17T22:01:57.729Z,72.49
2018-02-17T22:04:25.242Z,72.39
2018-02-17T22:06:52.730Z,72.27
2018-02-17T22:09:20.257Z,72.04
2018-02-17T22:11:47.781Z,71.81
2018-02-17T22:14:15.319Z,71.88
2018-02-17T22:16:42.842Z,71.64
2018-02-17T22:19:10.385Z,71.84
2018-02-17T22:21:37.868Z,71.90
2018-02-17T22:24:05.459Z,72.31
2018-02-17T22:26:32.981Z,72.32
2018-02-17T22:29:00.454Z,72.15
2018-02-17T22:31:28.047Z,71.99
2018-02-17T22:33:55.629Z,71.93
2018-02-17T22:36:23.247Z,71.63
2018-02-17T22:38:50.900Z,71.32
2018-02-17T22:41:18.431Z,71.19
2018-02-17T22:43:46.077Z,71.53
2018-02-17T22:46:13.666Z,71.39
2018-02-17T22:48:41.194Z,71.37
2018-02-17T22:51:08.713Z,71.25
2018-02-17T22:53:36.249Z,71.15
2018-02-17T22:56:03.767Z,71.22
2018-02-17T22:58:31.892Z,71.04
2018-02-17T23:00:59.449Z,70.97
2018-02-17T23:03:26.959Z,71.19
2018-02-17T23:05:54.508Z,71.23
2018-02-17T23:08:22.036Z,71.23
2018-02-17T23:10:49.606Z,71.23
2018-02-17T23:13:17.120Z,71.46
2018-02-17T23:15:44.704Z,71.33
2018-02-17T23:18:12.282Z,71.71
2018-02-17T23:20:39.861Z,71.66
2018-02-17T23:23:07.449Z,71.67
2018-02-17T23:25:35.013Z,71.55
2018-02-17T23:28:02.533Z,71.50
2018-02-17T23:30:30.078Z,71.59
2018-02-17T23:32:57.596Z,71.68
2018-02-17T23:35:25.139Z,71.47
2018-02-17T23:37:52.643Z,71.63
2018-02-17T23:40:20.174Z,71.54
2018-02-17T23:42:47.668Z,71.38
2018-02-17T23:45:15.196Z,71.10
2018-02-17T23:47:42.700Z,70.73
2018-02-17T23:50:10.235Z,70.43
2018-02-17T23:52:37.751Z,70.53
2018-02-17T23:55:05.271Z,70.62
2018-02-17T23:57:32.789Z,70.51
